Time;durP1;ratioP1;P1;durP2;ratioP2;P2;SDS_P1;SDS_P2;PMS_P1;PMS_P2;Temp;Humidity;BMP_temperature;BMP_pressure;BME280_temperature;BME280_humidity;BME280_pressure;Samples;Min_cycle;Max_cycle;Signal;HPM_P1;HPM_P2
2021/06/02 00:00:04;;;;;;;5.97;2.78;;;18.50;39.00;;;18.81;33.01;97420.03;5025439;28;20053;-33
2021/06/02 00:02:32;;;;;;;5.20;3.28;;;18.50;39.00;;;18.77;33.19;97425.00;5027467;28;20204;-33
2021/06/02 00:05:03;;;;;;;3.70;2.80;;;18.50;39.10;;;18.74;33.06;97422.75;5008680;28;20263;-33
2021/06/02 00:07:32;;;;;;;3.95;3.13;;;18.40;39.30;;;18.69;33.21;97419.91;5026398;28;20048;-34
2021/06/02 00:10:00;;;;;;;3.72;2.90;;;18.40;39.20;;;18.66;33.04;97418.44;5008617;28;20045;-33
2021/06/02 00:12:28;;;;;;;3.90;3.33;;;18.40;39.10;;;18.64;33.10;97420.53;5024979;28;20041;-33
2021/06/02 00:14:56;;;;;;;4.80;2.80;;;18.30;39.20;;;18.62;33.18;97419.94;5026308;28;20053;-33
2021/06/02 00:17:24;;;;;;;3.08;2.78;;;18.30;39.20;;;18.61;33.34;97417.44;5026457;28;20057;-33
2021/06/02 00:19:52;;;;;;;4.20;3.10;;;18.30;39.20;;;18.58;33.45;97410.63;5007798;28;20057;-33
2021/06/02 00:22:20;;;;;;;4.95;3.00;;;18.30;39.20;;;18.53;33.51;97407.75;5008409;28;20075;-33
2021/06/02 00:24:48;;;;;;;3.08;2.28;;;18.30;39.20;;;18.50;33.33;97403.63;5008917;28;20057;-33
2021/06/02 00:27:17;;;;;;;3.08;2.50;;;18.20;39.30;;;18.47;33.37;97405.94;5008765;28;20359;-33
2021/06/02 00:29:45;;;;;;;4.93;2.92;;;18.10;39.60;;;18.45;33.54;97414.22;5025858;28;20053;-33
2021/06/02 00:32:14;;;;;;;3.08;2.53;;;18.10;39.70;;;18.39;33.70;97404.31;5025072;28;20059;-33
2021/06/02 00:34:44;;;;;;;3.63;2.85;;;18.00;40.00;;;18.33;33.75;97398.97;5007138;28;20060;-33
2021/06/02 00:37:11;;;;;;;4.40;3.05;;;17.90;40.20;;;18.27;33.77;97403.38;5007098;28;20455;-33
2021/06/02 00:39:41;;;;;;;4.50;2.45;;;17.80;40.10;;;18.21;33.81;97407.75;5025755;28;20065;-33
2021/06/02 00:42:09;;;;;;;4.55;2.38;;;17.70;40.30;;;18.16;34.13;97406.75;5008978;28;20064;-33
2021/06/02 00:44:37;;;;;;;5.75;3.13;;;17.70;41.30;;;18.12;34.13;97410.91;5023712;28;20052;-33
2021/06/02 00:47:06;;;;;;;3.20;2.55;;;17.60;40.60;;;18.09;34.32;97409.47;5024748;28;20052;-33
2021/06/02 00:49:34;;;;;;;4.75;2.67;;;17.60;40.80;;;18.06;34.23;97416.09;5023346;28;20051;-33
2021/06/02 00:52:06;;;;;;;4.32;2.70;;;17.60;40.60;;;18.02;34.43;97416.75;5024916;28;20053;-33
2021/06/02 00:54:38;;;;;;;3.70;2.60;;;17.60;40.90;;;17.97;34.33;97424.63;5025222;28;20060;-33
2021/06/02 00:57:16;;;;;;;4.45;2.58;;;17.60;40.90;;;17.93;34.72;97426.09;5025181;28;20267;-33
2021/06/02 00:59:51;;;;;;;3.60;2.72;;;17.50;41.90;;;17.88;34.63;97424.06;5025481;28;20079;-34
2021/06/02 01:02:21;;;;;;;4.00;2.80;;;17.40;41.40;;;17.84;34.79;97422.84;5009583;28;20238;-33
2021/06/02 01:04:52;;;;;;;4.38;3.00;;;17.30;41.50;;;17.79;34.87;97415.34;5024748;28;20067;-34
2021/06/02 01:07:23;;;;;;;4.32;2.67;;;17.30;41.70;;;17.76;35.01;97413.09;5025159;28;20050;-33
2021/06/02 01:09:57;;;;;;;3.30;3.00;;;17.20;42.00;;;17.74;34.77;97414.34;5025098;28;20057;-33
2021/06/02 01:12:29;;;;;;;3.22;2.67;;;17.20;41.90;;;17.69;34.93;97410.41;5024949;28;20061;-34
2021/06/02 01:14:59;;;;;;;3.33;2.63;;;17.20;42.10;;;17.64;35.07;97412.94;5025436;28;20061;-34
2021/06/02 01:17:30;;;;;;;5.22;2.78;;;17.10;42.00;;;17.60;35.06;97409.03;5025231;28;20250;-33
2021/06/02 01:20:01;;;;;;;4.30;2.83;;;17.10;42.10;;;17.58;35.05;97412.94;5024567;28;20037;-34
2021/06/02 01:22:34;;;;;;;5.00;2.75;;;17.10;42.10;;;17.56;35.25;97420.41;5025961;28;20049;-34
2021/06/02 01:25:15;;;;;;;4.28;3.15;;;17.10;42.10;;;17.53;35.12;97418.97;5006817;28;20501;-34
2021/06/02 01:27:47;;;;;;;7.57;2.50;;;17.00;42.60;;;17.51;35.40;97416.47;5024903;28;20068;-34
2021/06/02 01:30:21;;;;;;;2.47;2.28;;;17.00;42.30;;;17.47;35.28;97415.25;5024569;28;20046;-34
2021/06/02 01:33:03;;;;;;;5.25;2.92;;;17.00;42.40;;;17.46;35.21;97412.78;5025467;28;20052;-34
2021/06/02 01:35:50;;;;;;;8.20;2.90;;;17.00;42.10;;;17.43;35.22;97410.50;5024420;28;20348;-34
2021/06/02 01:38:19;;;;;;;4.07;2.50;;;17.00;42.00;;;17.38;35.34;97415.69;5025297;28;20046;-34
2021/06/02 01:41:06;;;;;;;4.07;2.80;;;16.80;42.30;;;17.34;35.56;97411.78;5025375;28;20355;-34
2021/06/02 01:44:23;;;;;;;4.30;2.83;;;16.80;43.40;;;17.29;35.42;97407.84;5025180;28;20513;-34
2021/06/02 01:47:23;;;;;;;3.05;2.53;;;16.80;43.50;;;17.24;35.62;97417.59;5023922;28;20065;-34
2021/06/02 01:50:12;;;;;;;3.67;2.50;;;16.70;43.60;;;17.20;35.67;97421.72;5023907;28;20449;-34
2021/06/02 01:53:43;;;;;;;4.50;2.80;;;16.70;43.80;;;17.16;35.66;97418.63;5023858;28;20370;-34
2021/06/02 01:56:57;;;;;;;3.38;2.50;;;16.70;43.70;;;17.11;36.02;97411.16;5023976;28;20365;-33
2021/06/02 02:00:15;;;;;;;3.50;2.97;;;16.60;44.40;;;17.04;36.06;97414.88;5025003;28;20060;-34
2021/06/02 02:03:30;;;;;;;3.05;2.50;;;16.50;45.00;;;16.95;36.34;97416.16;5022151;28;20498;-34
2021/06/02 02:06:21;;;;;;;3.22;2.78;;;16.30;45.60;;;16.85;36.36;97416.56;5024816;28;20057;-34
2021/06/02 02:09:34;;;;;;;4.65;3.28;;;16.10;44.70;;;16.73;36.62;97419.84;5023493;28;20051;-34
2021/06/02 02:12:30;;;;;;;3.78;2.72;;;16.10;46.00;;;16.67;36.53;97422.50;5008430;28;20079;-34
2021/06/02 02:15:34;;;;;;;3.42;2.50;;;16.00;46.60;;;16.57;37.02;97420.22;5022898;28;20053;-34
2021/06/02 02:18:30;;;;;;;4.72;3.33;;;15.80;46.10;;;16.44;36.95;97418.38;5009703;28;20370;-34
2021/06/02 02:21:20;;;;;;;4.72;3.25;;;15.70;46.90;;;16.39;37.31;97414.63;5009593;28;20053;-34
2021/06/02 02:24:11;;;;;;;4.95;2.88;;;15.70;47.00;;;16.31;37.43;97421.84;5012260;28;20499;-34
2021/06/02 02:27:14;;;;;;;5.28;2.70;;;15.60;47.30;;;16.25;37.46;97413.78;5026497;28;20054;-34
2021/06/02 02:30:12;;;;;;;3.85;2.75;;;15.60;47.40;;;16.20;37.73;97426.97;5026518;28;20053;-34
2021/06/02 02:33:21;;;;;;;6.22;3.00;;;15.50;47.90;;;16.09;38.07;97418.47;5009224;28;20053;-34
2021/06/02 02:36:07;;;;;;;4.50;2.60;;;15.50;48.20;;;16.05;38.13;97427.97;5029086;28;20055;-34
2021/06/02 02:38:55;;;;;;;3.35;2.75;;;15.40;48.40;;;16.00;38.38;97427.75;5029261;28;20597;-34
2021/06/02 02:41:36;;;;;;;4.00;2.80;;;15.30;47.20;;;15.93;38.73;97432.25;5027519;28;20045;-34
2021/06/02 02:44:13;;;;;;;3.10;2.78;;;15.20;47.50;;;15.87;38.48;97435.75;5010129;28;20363;-34
2021/06/02 02:46:56;;;;;;;4.05;2.92;;;15.10;47.50;;;15.81;38.87;97434.69;5028420;28;20049;-34
2021/06/02 02:49:45;;;;;;;5.93;3.13;;;15.10;47.70;;;15.74;39.24;97434.66;5027821;28;20061;-34
2021/06/02 02:52:52;;;;;;;4.22;3.17;;;15.00;50.00;;;15.67;39.16;97441.81;5027223;28;20397;-34
2021/06/02 02:55:33;;;;;;;3.40;2.78;;;14.90;49.30;;;15.62;39.31;97438.06;5027082;28;20064;-34
2021/06/02 02:58:30;;;;;;;3.25;2.60;;;14.90;48.60;;;15.57;39.40;97438.66;5027032;28;20315;-34
2021/06/02 03:01:20;;;;;;;3.75;2.90;;;14.90;50.20;;;15.50;39.54;97435.94;5010447;28;20269;-34
2021/06/02 03:04:07;;;;;;;3.53;3.17;;;14.80;50.10;;;15.43;39.86;97437.75;5026479;28;20061;-34
2021/06/02 03:06:45;;;;;;;5.28;3.40;;;14.70;50.20;;;15.35;39.97;97440.56;5010401;28;20043;-34
2021/06/02 03:09:45;;;;;;;2.85;2.55;;;14.60;49.70;;;15.30;40.12;97449.22;5028628;28;20049;-34
2021/06/02 03:12:44;;;;;;;3.60;3.15;;;14.60;51.10;;;15.25;39.96;97442.78;5008486;28;20381;-34
2021/06/02 03:15:44;;;;;;;3.67;3.30;;;14.50;50.80;;;15.22;39.92;97449.38;5026904;28;20050;-33
2021/06/02 03:18:12;;;;;;;5.00;3.00;;;14.50;50.30;;;15.21;40.04;97444.22;5027479;28;20075;-33
2021/06/02 03:21:02;;;;;;;3.38;2.72;;;14.50;49.30;;;15.21;40.25;97453.06;5025763;28;20049;-33
2021/06/02 03:24:17;;;;;;;3.92;2.95;;;14.60;50.90;;;15.17;40.43;97454.50;5009221;28;20060;-33
2021/06/02 03:27:25;;;;;;;4.35;2.97;;;14.50;51.20;;;15.10;40.35;97457.13;5026187;28;20065;-33
2021/06/02 03:30:34;;;;;;;3.70;3.00;;;14.40;51.70;;;15.06;40.27;97455.03;5025505;28;20057;-33
2021/06/02 03:33:23;;;;;;;4.28;3.20;;;14.40;51.80;;;15.03;40.64;97455.41;5027282;28;20057;-33
2021/06/02 03:36:27;;;;;;;4.75;3.13;;;14.30;51.00;;;14.97;40.52;97459.72;5009781;28;20053;-33
2021/06/02 03:39:22;;;;;;;3.90;3.20;;;14.30;51.20;;;14.93;40.65;97456.56;5008192;28;20053;-33
2021/06/02 03:41:50;;;;;;;3.60;2.88;;;14.30;51.80;;;14.88;40.74;97463.53;5026844;28;20057;-33
2021/06/02 03:44:44;;;;;;;4.03;3.30;;;14.10;50.40;;;14.83;41.13;97466.81;5026733;28;20237;-33
2021/06/02 03:47:24;;;;;;;4.37;3.03;;;14.10;51.00;;;14.80;40.97;97466.34;4990754;28;20553;-33
2021/06/02 03:50:00;;;;;;;3.65;3.30;;;14.10;50.60;;;14.79;41.31;97462.81;5023658;28;20053;-33
2021/06/02 03:52:49;;;;;;;8.65;3.53;;;14.10;50.70;;;14.79;41.40;97464.69;5027015;28;20067;-33
2021/06/02 03:55:46;;;;;;;5.28;3.13;;;14.10;50.60;;;14.76;41.62;97466.72;5008864;28;20055;-33
2021/06/02 03:58:29;;;;;;;4.18;3.13;;;14.20;51.50;;;14.82;41.56;97469.69;5025920;28;20232;-32
2021/06/02 04:01:11;;;;;;;4.32;3.20;;;14.30;51.10;;;14.88;41.43;97469.72;5026468;28;20250;-32
2021/06/02 04:04:00;;;;;;;4.05;3.00;;;14.40;50.80;;;14.95;41.58;97467.13;5025758;28;20057;-32
2021/06/02 04:07:07;;;;;;;4.88;3.28;;;14.50;50.90;;;14.98;42.00;97469.38;5008629;28;20080;-32
2021/06/02 04:10:07;;;;;;;3.80;2.90;;;14.60;50.80;;;15.01;41.27;97460.16;5027148;28;20045;-32
2021/06/02 04:13:15;;;;;;;3.55;3.03;;;14.60;51.00;;;15.04;41.37;97476.66;5008955;28;20675;-32
2021/06/02 04:15:48;;;;;;;6.85;3.30;;;14.60;49.70;;;15.08;41.32;97474.41;5011650;28;20060;-32
2021/06/02 04:18:22;;;;;;;5.50;3.00;;;14.60;50.20;;;15.11;41.41;97477.53;5027065;28;20389;-32
2021/06/02 04:20:51;;;;;;;4.47;3.28;;;14.70;49.90;;;15.18;41.27;97474.09;5025801;28;20058;-32
2021/06/02 04:23:21;;;;;;;3.95;3.55;;;14.80;49.50;;;15.21;41.28;97479.06;5025881;28;20061;-32
2021/06/02 04:25:50;;;;;;;4.53;3.10;;;14.80;49.60;;;15.21;41.43;97474.53;5025081;28;20064;-32
2021/06/02 04:28:19;;;;;;;6.95;3.53;;;14.80;49.60;;;15.24;41.30;97478.69;5026183;28;20065;-32
2021/06/02 04:30:50;;;;;;;3.58;2.80;;;14.80;49.60;;;15.28;41.30;97485.31;5018766;23;20033;-38
2021/06/02 04:33:18;;;;;;;4.50;2.95;;;14.90;49.80;;;15.30;41.68;97485.94;5018669;28;20058;-37
2021/06/02 04:35:52;;;;;;;5.82;2.90;;;14.90;49.60;;;15.31;41.52;97488.41;5006193;28;20614;-37
2021/06/02 04:38:20;;;;;;;5.68;3.13;;;14.90;50.10;;;15.33;41.39;97482.88;5020537;28;20061;-37
2021/06/02 04:40:48;;;;;;;5.13;3.03;;;15.00;49.40;;;15.36;41.44;97487.84;5005878;28;20060;-37
2021/06/02 04:43:18;;;;;;;6.00;3.20;;;15.00;49.30;;;15.38;41.31;97488.47;5003982;28;20054;-37
2021/06/02 04:45:54;;;;;;;4.35;2.67;;;15.10;49.30;;;15.43;41.46;97490.56;5004077;28;20068;-37
2021/06/02 04:48:23;;;;;;;4.45;3.88;;;15.10;49.80;;;15.45;41.52;97492.03;5004365;28;20054;-37
2021/06/02 04:51:16;;;;;;;4.50;3.03;;;15.20;49.10;;;15.50;41.57;97502.19;5005379;28;20054;-37
2021/06/02 04:53:56;;;;;;;5.35;2.90;;;15.20;49.30;;;15.55;41.15;97497.06;5004114;28;20254;-37
2021/06/02 04:56:56;;;;;;;5.68;3.55;;;15.30;49.60;;;15.58;41.35;97495.84;5003669;28;20061;-37
2021/06/02 05:00:04;;;;;;;4.78;3.17;;;15.30;49.70;;;15.60;41.37;97494.59;5004831;28;20057;-37
2021/06/02 05:03:02;;;;;;;3.90;3.15;;;15.40;49.50;;;15.64;41.39;97501.22;5004429;28;20045;-37
2021/06/02 05:06:24;;;;;;;4.93;2.80;;;15.50;48.70;;;15.67;41.10;97498.16;5004933;28;20058;-37
2021/06/02 05:09:07;;;;;;;4.68;3.03;;;15.60;48.50;;;15.70;41.05;97504.97;5005699;28;20052;-37
2021/06/02 05:12:13;;;;;;;4.50;2.90;;;15.70;48.10;;;15.70;41.01;97503.16;5003524;28;20076;-37
2021/06/02 05:15:12;;;;;;;6.75;2.95;;;15.70;48.10;;;15.77;41.23;97508.56;5005764;28;20269;-37
2021/06/02 05:18:35;;;;;;;5.35;3.55;;;15.80;48.10;;;15.85;41.00;97503.03;5007170;28;20070;-37
2021/06/02 05:22:05;;;;;;;5.53;3.10;;;15.80;48.40;;;15.91;41.15;97510.28;5005379;28;20265;-35
2021/06/02 05:25:17;;;;;;;12.63;4.80;;;15.90;49.20;;;16.00;41.36;97521.72;5004235;28;20075;-36
2021/06/02 05:28:31;;;;;;;5.88;3.30;;;15.90;50.00;;;16.03;41.74;97515.97;5005323;28;20251;-36
2021/06/02 05:31:27;;;;;;;6.63;3.13;;;16.00;50.80;;;16.07;41.75;97525.25;5003863;28;20049;-37
2021/06/02 05:34:27;;;;;;;4.93;3.30;;;15.90;49.10;;;16.09;41.81;97525.91;5005945;28;20375;-37
2021/06/02 05:37:00;;;;;;;4.85;3.65;;;15.90;49.90;;;16.13;41.90;97529.00;5004202;28;20385;-36
2021/06/02 05:40:14;;;;;;;3.88;3.33;;;16.00;49.30;;;16.11;42.00;97523.84;5004513;28;20120;-37
2021/06/02 05:43:47;;;;;;;4.00;2.92;;;16.10;50.50;;;16.15;42.23;97518.91;5003943;28;20054;-36
2021/06/02 05:46:18;;;;;;;4.00;3.42;;;16.20;49.90;;;16.19;42.05;97519.31;5001336;28;20061;-37
2021/06/02 05:49:41;;;;;;;5.47;3.75;;;16.10;49.40;;;16.23;42.23;97515.22;5004001;28;20046;-37
2021/06/02 05:52:53;;;;;;;9.05;4.40;;;16.20;50.70;;;16.28;42.70;97523.47;5005587;28;20056;-36
2021/06/02 05:56:11;;;;;;;9.23;4.13;;;16.30;51.30;;;16.31;43.28;97520.41;5008421;28;20058;-36
2021/06/02 05:59:48;;;;;;;10.65;4.05;;;16.30;50.50;;;16.37;42.54;97514.22;5009689;28;20211;-36
2021/06/02 06:03:18;;;;;;;11.35;4.63;;;16.30;50.20;;;16.44;41.89;97519.59;5008036;28;20060;-36
2021/06/02 06:06:28;;;;;;;17.33;4.88;;;16.40;50.00;;;16.51;42.05;97515.91;5008012;28;20056;-36
2021/06/02 06:09:37;;;;;;;11.50;4.60;;;16.50;50.50;;;16.56;42.61;97523.38;5008062;28;20061;-36
2021/06/02 06:12:44;;;;;;;5.47;3.20;;;16.60;49.90;;;16.62;42.43;97519.06;5006646;28;20049;-36
2021/06/02 06:16:05;;;;;;;6.95;3.63;;;16.60;49.30;;;16.67;41.52;97509.38;5007229;28;20053;-36
2021/06/02 06:19:07;;;;;;;6.57;2.95;;;16.70;48.80;;;16.72;41.07;97511.44;5009044;28;20536;-36
2021/06/02 06:22:26;;;;;;;4.38;2.80;;;16.70;48.30;;;16.77;41.39;97514.34;5007213;28;20058;-37
2021/06/02 06:25:10;;;;;;;6.82;3.03;;;16.70;48.60;;;16.85;41.28;97511.50;5028177;28;20049;-36
2021/06/02 06:27:55;;;;;;;3.85;2.70;;;16.80;48.60;;;16.91;41.07;97515.22;5026588;28;20063;-37
2021/06/02 06:30:35;;;;;;;6.15;2.95;;;16.80;48.50;;;16.96;41.22;97517.28;5027562;28;20045;-37
2021/06/02 06:33:12;;;;;;;4.65;3.05;;;16.90;48.90;;;17.01;41.55;97510.25;5026909;28;20064;-38
2021/06/02 06:35:44;;;;;;;4.10;3.00;;;17.00;49.10;;;17.08;41.52;97512.97;5010777;28;20061;-38
2021/06/02 06:38:53;;;;;;;6.30;3.55;;;17.10;48.80;;;17.15;41.75;97519.16;5027099;28;20064;-39
2021/06/02 06:41:26;;;;;;;5.57;3.50;;;17.10;49.40;;;17.21;41.57;97515.66;5028316;28;20049;-37
2021/06/02 06:43:56;;;;;;;3.67;3.00;;;17.10;49.10;;;17.26;41.71;97521.25;5025952;28;20072;-37
2021/06/02 06:46:27;;;;;;;3.55;3.25;;;17.20;49.00;;;17.30;41.78;97519.78;5010758;28;20068;-38
2021/06/02 06:48:59;;;;;;;5.13;3.25;;;17.30;49.10;;;17.36;41.97;97523.53;5026413;28;20063;-38
2021/06/02 06:51:31;;;;;;;5.43;3.30;;;17.40;49.40;;;17.41;42.00;97520.19;5025360;28;20068;-37
2021/06/02 06:54:00;;;;;;;6.40;3.70;;;17.40;49.50;;;17.46;42.37;97528.47;5010879;28;20060;-37
2021/06/02 06:56:29;;;;;;;7.43;3.50;;;17.50;49.70;;;17.50;42.44;97513.56;5025823;28;20064;-37
2021/06/02 06:58:58;;;;;;;6.53;3.40;;;17.50;49.80;;;17.55;42.68;97515.66;5027842;28;20060;-37
2021/06/02 07:01:26;;;;;;;6.18;3.38;;;17.50;50.00;;;17.57;42.64;97519.78;5027402;28;20346;-37
2021/06/02 07:03:57;;;;;;;5.55;3.80;;;17.60;49.90;;;17.63;42.52;97518.94;5025228;28;20363;-38
2021/06/02 07:06:26;;;;;;;6.72;3.55;;;17.70;49.90;;;17.68;42.49;97526.38;5027061;28;20040;-38
2021/06/02 07:08:54;;;;;;;5.43;3.25;;;17.70;49.70;;;17.72;42.38;97519.56;5027192;28;20053;-38
2021/06/02 07:11:22;;;;;;;6.50;3.47;;;17.70;49.60;;;17.78;42.22;97521.41;5026170;28;20350;-38
2021/06/02 07:13:52;;;;;;;6.13;3.40;;;17.80;49.30;;;17.82;41.82;97529.91;5027228;28;20049;-37
2021/06/02 07:16:21;;;;;;;6.30;3.60;;;17.90;49.10;;;17.87;42.08;97522.03;5026907;28;20266;-38
2021/06/02 07:18:51;;;;;;;4.85;4.00;;;17.90;49.20;;;17.89;41.61;97515.41;5025933;28;20063;-37
2021/06/02 07:21:21;;;;;;;8.10;3.38;;;17.90;48.70;;;17.95;41.81;97510.19;5028095;28;20059;-38
2021/06/02 07:23:50;;;;;;;5.07;3.60;;;18.00;48.70;;;18.00;41.56;97513.09;5024508;28;20053;-38
2021/06/02 07:26:18;;;;;;;6.68;4.10;;;18.10;48.60;;;18.03;41.32;97516.19;5028307;28;20377;-37
2021/06/02 07:29:08;;;;;;;7.65;3.65;;;18.10;48.40;;;18.08;40.92;97513.69;5026023;28;20041;-37
2021/06/02 07:31:36;;;;;;;4.00;3.53;;;18.10;47.90;;;18.13;41.04;97520.31;5025730;28;20055;-38
2021/06/02 07:34:05;;;;;;;5.78;3.25;;;18.20;48.00;;;18.19;40.99;97522.97;5026360;28;20065;-38
2021/06/02 07:36:34;;;;;;;5.15;2.85;;;18.20;47.80;;;18.24;41.10;97520.50;5025687;28;20049;-37
2021/06/02 07:39:06;;;;;;;7.40;3.50;;;18.30;48.00;;;18.28;41.12;97523.56;5025362;28;20250;-37
2021/06/02 07:41:34;;;;;;;6.38;3.78;;;18.30;47.90;;;18.32;41.00;97516.72;5027109;28;20059;-38
2021/06/02 07:44:02;;;;;;;7.40;4.25;;;18.40;47.90;;;18.36;40.75;97519.78;5024933;28;20053;-37
2021/06/02 07:46:34;;;;;;;6.88;3.20;;;18.40;47.60;;;18.40;40.63;97531.84;5025962;28;20367;-38
2021/06/02 07:49:05;;;;;;;5.13;3.20;;;18.50;47.70;;;18.45;40.42;97532.81;5026180;28;20055;-37
2021/06/02 07:51:34;;;;;;;5.65;3.78;;;18.50;47.80;;;18.50;40.85;97530.31;5026428;28;20391;-37
2021/06/02 07:54:04;;;;;;;5.03;3.92;;;18.60;47.80;;;18.55;41.01;97526.13;5027407;28;20375;-38
2021/06/02 07:56:33;;;;;;;6.05;3.63;;;18.60;47.80;;;18.60;40.82;97526.34;5026555;28;20072;-38
2021/06/02 07:59:02;;;;;;;4.93;3.42;;;18.70;47.90;;;18.66;40.81;97525.47;5026383;28;20704;-38
2021/06/02 08:01:33;;;;;;;3.83;2.92;;;18.70;47.80;;;18.73;40.85;97528.13;5034189;28;20362;-38
2021/06/02 08:04:03;;;;;;;4.70;3.65;;;18.80;47.80;;;18.79;40.59;97524.56;5034138;28;20045;-37
2021/06/02 08:06:31;;;;;;;6.03;3.03;;;18.80;47.50;;;18.86;40.47;97523.53;5028202;28;20045;-38
2021/06/02 08:08:59;;;;;;;7.03;3.40;;;18.90;47.30;;;18.91;40.21;97525.56;5035053;28;20067;-37
2021/06/02 08:11:27;;;;;;;4.93;3.63;;;19.00;46.90;;;18.97;39.89;97527.38;5032660;28;20247;-37
2021/06/02 08:13:55;;;;;;;6.53;3.13;;;19.00;46.50;;;19.01;39.96;97533.16;5035908;28;20053;-37
2021/06/02 08:16:23;;;;;;;4.47;3.55;;;19.10;46.60;;;19.06;39.82;97530.66;5031827;28;20061;-37
2021/06/02 08:18:53;;;;;;;7.07;3.45;;;19.20;46.40;;;19.12;39.63;97529.78;5034785;28;20049;-37
2021/06/02 08:21:22;;;;;;;3.67;2.97;;;19.20;46.20;;;19.17;39.48;97529.94;5026088;28;20238;-37
2021/06/02 08:23:50;;;;;;;7.25;3.75;;;19.30;46.00;;;19.21;39.38;97536.56;5024155;28;20063;-36
2021/06/02 08:26:18;;;;;;;4.10;2.97;;;19.30;45.80;;;19.25;39.28;97537.78;5025182;28;20057;-37
2021/06/02 08:28:46;;;;;;;4.03;2.78;;;19.30;45.80;;;19.29;39.23;97538.19;5026120;28;20057;-37
2021/06/02 08:31:14;;;;;;;5.35;2.67;;;19.40;45.60;;;19.35;39.26;97525.66;5026731;28;20056;-37
2021/06/02 08:33:43;;;;;;;4.43;2.95;;;19.50;45.70;;;19.42;39.19;97535.34;5028870;28;20289;-37
2021/06/02 08:36:11;;;;;;;4.10;3.10;;;19.50;45.70;;;19.47;38.99;97538.22;5032247;28;20238;-37
2021/06/02 08:38:39;;;;;;;4.30;3.08;;;19.60;45.20;;;19.53;38.82;97535.69;5030178;28;20046;-37
2021/06/02 08:41:08;;;;;;;4.45;2.90;;;19.70;45.30;;;19.60;38.47;97542.69;5041621;28;20053;-37
2021/06/02 08:43:36;;;;;;;5.97;2.70;;;19.70;44.70;;;19.64;37.73;97540.38;5039400;28;20061;-37
2021/06/02 08:46:05;;;;;;;6.40;2.67;;;19.80;43.70;;;19.70;37.73;97544.88;5040558;28;20045;-37
2021/06/02 08:48:33;;;;;;;3.45;2.50;;;19.80;43.70;;;19.74;37.60;97539.91;5036689;28;20062;-37
2021/06/02 08:51:01;;;;;;;5.13;3.00;;;19.80;43.50;;;19.76;37.94;97538.63;5040753;28;20263;-37
2021/06/02 08:53:29;;;;;;;3.60;2.80;;;19.90;44.00;;;19.87;37.89;97542.44;5027883;28;20042;-37
2021/06/02 08:56:02;;;;;;;5.18;2.70;;;20.00;44.10;;;19.90;37.75;97547.41;5034643;28;20231;-37
2021/06/02 08:58:30;;;;;;;3.10;2.78;;;20.00;43.80;;;19.94;36.84;97542.41;5021672;28;20052;-38
2021/06/02 09:00:58;;;;;;;3.47;2.42;;;20.00;42.50;;;19.98;36.06;97543.59;5025009;28;20064;-37
2021/06/02 09:03:31;;;;;;;3.67;2.60;;;20.10;41.90;;;20.02;34.71;97534.81;5039138;28;20350;-38
2021/06/02 09:06:00;;;;;;;3.35;2.50;;;20.10;40.00;;;20.09;35.99;97536.63;5021127;28;20072;-37
2021/06/02 09:08:28;;;;;;;5.90;3.85;;;20.20;41.50;;;20.17;35.35;97541.72;5030245;28;20073;-37
2021/06/02 09:11:08;;;;;;;3.90;2.67;;;20.30;41.40;;;20.23;35.23;97548.94;5032151;28;20377;-37
2021/06/02 09:13:36;;;;;;;3.22;2.38;;;20.30;40.60;;;20.29;34.15;97541.81;5026265;28;20049;-37
2021/06/02 09:16:29;;;;;;;3.17;2.13;;;20.40;39.30;;;20.35;33.33;97539.00;5028765;28;20049;-38
2021/06/02 09:19:05;;;;;;;3.42;2.60;;;20.50;36.70;;;20.39;33.48;97542.91;5028312;28;20221;-37
2021/06/02 09:21:38;;;;;;;3.65;2.50;;;20.50;37.50;;;20.42;33.92;97542.47;5027135;28;20061;-38
2021/06/02 09:24:07;;;;;;;3.97;2.95;;;20.50;39.40;;;20.53;34.12;97543.59;5034889;28;20053;-37
2021/06/02 09:26:49;;;;;;;4.53;2.83;;;20.60;39.20;;;20.56;33.94;97548.53;5027394;28;20053;-38
2021/06/02 09:29:17;;;;;;;3.10;2.45;;;20.70;39.10;;;20.61;33.60;97554.13;5059227;28;20045;-38
2021/06/02 09:31:49;;;;;;;3.95;3.22;;;20.80;38.50;;;20.64;33.34;97548.25;5062080;28;20055;-37
2021/06/02 09:34:24;;;;;;;4.95;2.53;;;20.70;38.40;;;20.73;32.80;97548.75;5062104;28;20047;-37
2021/06/02 09:37:02;;;;;;;6.05;3.47;;;20.80;37.60;;;20.74;32.94;97550.41;5060983;28;20045;-37
2021/06/02 09:39:39;;;;;;;7.20;3.40;;;20.80;37.90;;;20.77;33.72;97547.25;5062070;28;20051;-37
2021/06/02 09:42:18;;;;;;;4.50;2.80;;;21.00;38.80;;;20.80;33.25;97545.97;5059583;28;20111;-37
2021/06/02 09:45:10;;;;;;;4.47;2.40;;;21.10;38.00;;;20.87;32.00;97543.19;5054639;28;20242;-37
2021/06/02 09:47:46;;;;;;;3.40;2.90;;;21.20;36.50;;;20.94;32.93;97549.34;5052529;28;20045;-38
2021/06/02 09:50:21;;;;;;;7.00;3.00;;;21.30;36.70;;;20.95;32.46;97543.66;5049002;28;20377;-38
2021/06/02 09:52:51;;;;;;;4.93;2.40;;;21.30;36.80;;;20.96;32.65;97544.50;5062205;28;20366;-38
2021/06/02 09:55:41;;;;;;;5.72;3.67;;;21.30;37.00;;;21.04;31.96;97549.59;5047547;28;20059;-37
2021/06/02 09:58:15;;;;;;;5.50;2.92;;;21.30;36.40;;;21.17;32.40;97543.97;5046062;28;20131;-37
2021/06/02 10:00:58;;;;;;;4.65;2.80;;;21.30;37.30;;;21.23;30.77;97553.88;5045247;28;20178;-38
2021/06/02 10:03:30;;;;;;;4.43;2.50;;;21.40;35.60;;;21.31;31.92;97543.78;5048367;28;20234;-38
2021/06/02 10:05:58;;;;;;;5.00;2.78;;;21.50;36.50;;;21.33;31.50;97545.19;5044600;28;20059;-38
2021/06/02 10:08:35;;;;;;;5.53;3.10;;;21.50;36.20;;;21.34;31.33;97538.69;5045180;28;20208;-38
2021/06/02 10:11:18;;;;;;;2.83;2.42;;;21.50;36.00;;;21.40;31.13;97540.50;5046177;28;20051;-38
2021/06/02 10:13:51;;;;;;;3.35;2.38;;;21.60;35.40;;;21.48;30.36;97550.19;5046025;28;20057;-38
2021/06/02 10:16:40;;;;;;;3.33;2.45;;;21.70;34.90;;;21.52;30.08;97545.97;5045082;28;20041;-38
2021/06/02 10:19:08;;;;;;;8.35;2.72;;;21.80;34.30;;;21.59;30.70;97545.84;5046119;28;20079;-38
2021/06/02 10:21:43;;;;;;;9.13;2.90;;;21.90;35.30;;;21.66;30.56;97549.25;5045795;28;20063;-39
2021/06/02 10:24:12;;;;;;;3.78;2.72;;;21.90;35.30;;;21.74;30.24;97551.63;5046726;28;20055;-38
2021/06/02 10:26:40;;;;;;;3.67;2.88;;;22.00;34.80;;;21.79;30.37;97542.78;5044677;28;20767;-38
2021/06/02 10:29:08;;;;;;;2.78;2.17;;;22.00;34.30;;;21.76;29.33;97546.78;5045350;28;20053;-38
2021/06/02 10:31:36;;;;;;;6.75;2.85;;;22.10;33.20;;;21.79;29.56;97550.91;5060517;28;20045;-38
2021/06/02 10:34:04;;;;;;;4.82;2.83;;;22.00;33.80;;;21.83;29.35;97550.22;5043805;28;20049;-37
2021/06/02 10:36:33;;;;;;;3.53;2.55;;;22.10;33.80;;;21.90;29.61;97550.06;5043932;28;20067;-38
2021/06/02 10:39:07;;;;;;;5.25;2.70;;;22.10;33.80;;;21.92;29.59;97545.25;5046232;28;20076;-38
2021/06/02 10:41:50;;;;;;;4.25;2.40;;;22.10;33.60;;;21.94;29.25;97548.53;5046812;28;20247;-38
2021/06/02 10:44:36;;;;;;;2.97;2.60;;;22.20;33.30;;;22.00;28.70;97542.19;5046008;28;20053;-38
2021/06/02 10:47:05;;;;;;;3.10;2.17;;;22.30;33.50;;;22.13;29.43;97546.53;5047893;28;20280;-39
2021/06/02 10:49:36;;;;;;;2.92;2.63;;;22.50;33.80;;;22.25;28.23;97553.84;5045797;28;20357;-38
2021/06/02 10:52:06;;;;;;;2.92;2.50;;;22.60;32.50;;;22.34;28.38;97558.66;5047106;28;20053;-38
2021/06/02 10:54:41;;;;;;;3.13;2.55;;;22.70;32.40;;;22.40;28.52;97551.47;5046288;28;20049;-38
2021/06/02 10:57:12;;;;;;;2.95;2.15;;;22.70;32.40;;;22.50;28.36;97550.84;5047856;28;20060;-38
2021/06/02 10:59:44;;;;;;;4.10;2.65;;;22.80;32.60;;;22.54;28.06;97552.00;5047551;28;20282;-38
2021/06/02 11:02:13;;;;;;;4.95;2.90;;;22.80;32.50;;;22.60;28.85;97545.63;5047794;28;20342;-37
2021/06/02 11:04:56;;;;;;;2.38;1.95;;;22.80;33.00;;;22.67;28.32;97542.78;5047038;28;20253;-38
2021/06/02 11:07:26;;;;;;;4.93;2.70;;;23.00;30.90;;;22.73;27.83;97542.63;5048181;28;20060;-36
2021/06/02 11:10:04;;;;;;;3.60;2.28;;;23.00;31.80;;;22.77;27.55;97541.06;5046559;28;20060;-38
2021/06/02 11:12:45;;;;;;;4.55;2.53;;;23.20;31.20;;;22.82;26.64;97543.09;5046445;28;20064;-37
2021/06/02 11:15:22;;;;;;;5.40;2.63;;;23.30;29.40;;;22.81;27.46;97546.84;5048442;28;20041;-37
2021/06/02 11:18:09;;;;;;;3.03;2.20;;;23.40;31.00;;;22.85;27.72;97550.72;5047280;28;20045;-37